createdAt,value
2023-04-12T00:02:18.694Z,0.50
2023-04-12T00:07:21.697Z,0.47
2023-04-12T00:12:25.957Z,0.40
2023-04-12T00:17:30.237Z,0.30
2023-04-12T00:22:33.065Z,0.80
2023-04-12T00:27:36.144Z,0.93
2023-04-12T00:32:40.732Z,1.10
2023-04-12T00:37:43.673Z,0.20
2023-04-12T00:42:46.903Z,0.50
2023-04-12T00:47:51.202Z,0.30
2023-04-12T00:52:55.493Z,4.10
2023-04-12T00:57:59.367Z,7.18
2023-04-12T01:03:05.373Z,7.50
2023-04-12T01:08:15.030Z,8.10
2023-04-12T01:13:31.553Z,9.70
2023-04-12T01:18:45.699Z,7.00
2023-04-12T01:24:13.793Z,7.63
2023-04-12T01:29:20.721Z,7.20
2023-04-12T01:34:24.413Z,7.27
2023-04-12T01:39:27.491Z,6.95
2023-04-12T01:44:31.810Z,6.80
2023-04-12T01:49:41.629Z,6.15
2023-04-12T01:54:50.632Z,5.40
2023-04-12T01:59:55.146Z,6.77
2023-04-12T02:04:58.067Z,6.10
2023-04-12T02:10:00.893Z,5.50
2023-04-12T02:15:08.060Z,4.22
2023-04-12T02:20:12.083Z,4.65
2023-04-12T02:25:18.116Z,4.63
2023-04-12T02:30:23.078Z,4.60
2023-04-12T02:35:29.262Z,5.05
2023-04-12T02:40:40.800Z,5.60
2023-04-12T02:45:46.347Z,5.87
2023-04-12T02:50:49.291Z,6.70
2023-04-12T02:55:57.321Z,7.25
2023-04-12T03:01:07.587Z,8.40
2023-04-12T03:06:25.033Z,8.50
2023-04-12T03:11:28.024Z,9.15
2023-04-12T03:16:33.127Z,6.93
2023-04-12T03:21:45.694Z,9.23
2023-04-12T03:26:50.110Z,8.40
2023-04-12T03:31:59.628Z,8.97
2023-04-12T03:37:04.492Z,9.55
2023-04-12T03:42:32.452Z,8.73
2023-04-12T03:47:45.872Z,7.93
2023-04-12T03:52:50.499Z,8.63
2023-04-12T03:57:53.856Z,9.52
2023-04-12T04:03:03.193Z,9.90
2023-04-12T04:08:08.962Z,8.25
2023-04-12T04:13:24.244Z,9.70
2023-04-12T04:18:35.986Z,9.07
2023-04-12T04:23:40.162Z,8.75
2023-04-12T04:28:45.953Z,8.67
2023-04-12T04:33:54.602Z,10.10
2023-04-12T04:39:05.763Z,11.70
2023-04-12T04:44:14.389Z,11.57
2023-04-12T04:49:30.119Z,11.37
2023-04-12T04:54:40.097Z,10.30
2023-04-12T04:59:44.186Z,11.63
2023-04-12T05:04:56.398Z,12.07
2023-04-12T05:10:01.857Z,13.23
2023-04-12T05:15:11.634Z,12.70
2023-04-12T05:20:18.466Z,13.20
2023-04-12T05:25:21.782Z,15.53
2023-04-12T05:30:34.434Z,22.60
2023-04-12T05:35:39.790Z,17.58
2023-04-12T05:40:44.031Z,18.85
2023-04-12T05:45:47.477Z,19.00
2023-04-12T05:50:55.359Z,21.90
2023-04-12T05:55:59.401Z,31.17
2023-04-12T06:01:02.424Z,33.23
2023-04-12T06:06:07.626Z,31.25
2023-04-12T06:11:12.076Z,30.65
2023-04-12T06:16:15.576Z,29.93
2023-04-12T06:21:20.320Z,25.63
2023-04-12T06:26:23.221Z,0.98
2023-04-12T07:24:53.041Z,1.00
2023-04-12T07:29:56.054Z,1.90
2023-04-12T07:34:59.278Z,1.80
2023-04-12T07:40:03.586Z,0.77
2023-04-12T07:45:07.258Z,1.50
2023-04-12T07:50:13.066Z,2.83
2023-04-12T07:55:17.631Z,1.00
2023-04-12T08:00:21.607Z,1.20
2023-04-12T08:05:24.474Z,0.95
2023-04-12T08:10:28.704Z,0.60
2023-04-12T08:15:31.545Z,2.20
2023-04-12T08:20:34.343Z,1.00
2023-04-12T08:25:38.556Z,1.08
2023-04-12T08:30:41.335Z,1.50
2023-04-12T08:35:44.142Z,1.83
2023-04-12T08:40:48.245Z,3.00
2023-04-12T08:45:51.190Z,1.83
2023-04-12T08:50:54.429Z,1.00
2023-04-12T08:55:58.551Z,1.10
2023-04-12T09:01:01.704Z,1.10
2023-04-12T09:06:04.740Z,1.65
2023-04-12T09:16:49.333Z,1.50
2023-04-12T09:21:56.456Z,0.70
2023-04-12T09:27:03.938Z,1.70
2023-04-12T09:32:09.823Z,0.70
2023-04-12T09:37:16.302Z,1.65
2023-04-12T09:47:40.420Z,0.60
2023-04-12T09:52:43.704Z,0.50
2023-04-12T09:57:47.967Z,1.00
2023-04-12T10:02:54.109Z,1.67
2023-04-12T10:07:57.827Z,0.63
2023-04-12T10:13:03.644Z,0.80
2023-04-12T10:18:08.135Z,0.80
2023-04-12T10:23:12.175Z,0.73
2023-04-12T10:28:16.460Z,0.82
2023-04-12T10:33:26.211Z,1.00
2023-04-12T10:38:35.276Z,1.67
2023-04-12T10:43:39.298Z,1.40
2023-04-12T10:48:52.843Z,1.50
2023-04-12T10:54:35.523Z,0.60
2023-04-12T10:59:57.057Z,2.70
2023-04-12T11:05:10.408Z,1.17
2023-04-12T11:10:27.615Z,1.50
2023-04-12T11:15:33.989Z,1.23
2023-04-12T11:20:40.380Z,1.90
2023-04-12T11:25:43.150Z,1.00
2023-04-12T11:30:53.074Z,1.00
2023-04-12T11:35:56.102Z,0.40
2023-04-12T11:40:59.659Z,2.40
2023-04-12T11:46:04.202Z,0.88
2023-04-12T11:51:20.346Z,1.17
2023-04-12T11:56:23.964Z,1.98
2023-04-12T12:01:29.316Z,0.70
2023-04-12T12:06:32.723Z,0.80
2023-04-12T12:11:35.670Z,0.80
2023-04-12T12:16:41.793Z,1.03
2023-04-12T12:21:44.615Z,0.43
2023-04-12T12:26:50.418Z,1.90
2023-04-12T12:31:54.824Z,0.40
2023-04-12T12:36:57.890Z,1.70
2023-04-12T12:42:00.708Z,1.80
2023-04-12T12:47:13.934Z,0.57
2023-04-12T12:52:18.037Z,1.25
2023-04-12T12:57:21.043Z,0.40
2023-04-12T13:02:25.417Z,0.50
2023-04-12T13:07:28.471Z,0.80
2023-04-12T13:12:31.273Z,0.30
2023-04-12T13:17:35.762Z,1.47
2023-04-12T13:22:38.640Z,0.57
2023-04-12T13:27:41.614Z,0.30
2023-04-12T13:32:45.842Z,0.50
2023-04-12T13:37:48.697Z,0.40
2023-04-12T13:42:51.554Z,0.40
2023-04-12T13:47:56.064Z,0.28
2023-04-12T13:52:59.096Z,0.33
2023-04-12T13:58:01.998Z,0.63
2023-04-12T14:03:06.571Z,0.47
2023-04-12T14:08:09.487Z,0.70
2023-04-12T14:13:12.373Z,1.58
2023-04-12T14:18:16.978Z,0.13
2023-04-12T14:23:20.456Z,0.20
2023-04-12T14:28:24.275Z,0.80
2023-04-12T14:33:29.405Z,0.10
2023-04-12T14:38:32.258Z,0.40
2023-04-12T14:43:35.170Z,0.10
2023-04-12T14:48:39.508Z,0.10
2023-04-12T14:53:43.467Z,0.10
2023-04-12T14:58:46.364Z,0.27
2023-04-12T15:03:51.745Z,0.40
2023-04-12T15:08:55.371Z,0.55
2023-04-12T15:13:58.457Z,0.35
2023-04-12T15:19:10.425Z,0.10
2023-04-12T15:24:16.521Z,0.10
2023-04-12T15:29:21.280Z,0.55
2023-04-12T15:34:25.934Z,0.40
2023-04-12T15:39:49.351Z,0.10
2023-04-12T15:44:52.438Z,0.13
2023-04-12T15:49:56.821Z,2.20
2023-04-12T15:54:59.955Z,0.57
2023-04-12T16:00:12.706Z,1.30
2023-04-12T16:05:37.404Z,1.10
2023-04-12T16:10:41.403Z,0.57
2023-04-12T16:15:44.664Z,2.80
2023-04-12T16:20:48.922Z,1.65
2023-04-12T16:25:51.915Z,1.92
2023-04-12T16:31:16.311Z,1.47
2023-04-12T16:36:23.558Z,1.10
2023-04-12T16:41:26.717Z,0.98
2023-04-12T16:46:29.777Z,0.90
2023-04-12T16:51:36.920Z,1.30
2023-04-12T16:56:59.443Z,0.90
2023-04-12T17:02:02.299Z,1.20
2023-04-12T17:07:06.584Z,0.15
2023-04-12T17:12:09.607Z,0.95
2023-04-12T17:17:12.640Z,1.37
2023-04-12T17:22:35.379Z,0.65
2023-04-12T17:27:38.383Z,1.40
2023-04-12T17:32:42.495Z,1.30
2023-04-12T17:37:47.229Z,1.35
2023-04-12T17:42:50.097Z,0.20
2023-04-12T17:48:14.385Z,0.90
2023-04-12T17:53:18.621Z,1.15
2023-04-12T17:58:21.632Z,2.28
2023-04-12T18:03:24.826Z,1.20
2023-04-12T18:08:29.283Z,1.00
2023-04-12T18:13:50.689Z,0.50
2023-04-12T18:18:54.814Z,0.20
2023-04-12T18:23:59.551Z,0.10
2023-04-12T18:29:02.659Z,0.40
2023-04-12T18:34:05.492Z,0.93
2023-04-12T18:39:30.016Z,0.30
2023-04-12T18:44:34.291Z,0.60
2023-04-12T18:49:55.050Z,0.50
2023-04-12T18:54:59.226Z,0.17
2023-04-12T19:00:05.463Z,0.60
2023-04-12T19:05:23.866Z,1.00
2023-04-12T19:10:30.804Z,0.60
2023-04-12T19:15:35.955Z,0.32
2023-04-12T19:20:38.759Z,0.70
2023-04-12T19:25:43.456Z,0.60
2023-04-12T19:30:46.312Z,0.40
2023-04-12T19:35:49.995Z,1.10
2023-04-12T19:40:54.864Z,0.35
2023-04-12T19:45:58.538Z,3.40
2023-04-12T19:51:01.520Z,2.95
2023-04-12T19:56:15.061Z,3.40
2023-04-12T20:01:18.794Z,2.90
2023-04-12T20:06:23.590Z,2.78
2023-04-12T20:11:27.896Z,2.80
2023-04-12T20:16:32.968Z,2.90
2023-04-12T20:21:49.672Z,2.70
2023-04-12T20:26:53.868Z,2.90
2023-04-12T20:32:12.462Z,4.80
2023-04-12T20:37:15.696Z,7.72
2023-04-12T20:42:20.639Z,8.32
2023-04-12T20:47:27.628Z,8.48
2023-04-12T20:52:31.220Z,7.72
2023-04-12T20:57:35.983Z,7.63
2023-04-12T21:02:39.706Z,8.68
2023-04-12T21:07:42.729Z,6.90
2023-04-12T21:13:04.061Z,6.53
2023-04-12T21:18:07.106Z,5.30
2023-04-12T21:23:10.121Z,4.80
2023-04-12T21:28:14.932Z,3.47
2023-04-12T21:33:21.826Z,3.35
2023-04-12T21:38:39.472Z,3.75
2023-04-12T21:43:45.020Z,3.50
2023-04-12T21:48:48.034Z,2.67
2023-04-12T21:53:51.063Z,2.50
2023-04-12T21:58:57.202Z,2.10
2023-04-12T22:04:15.902Z,2.47
2023-04-12T22:09:18.830Z,1.85
2023-04-12T22:14:23.876Z,2.03
2023-04-12T22:19:26.774Z,1.90
2023-04-12T22:24:30.724Z,1.50
2023-04-12T22:29:53.479Z,1.50
2023-04-12T22:35:08.176Z,1.90
2023-04-12T22:40:13.688Z,2.67
2023-04-12T22:45:18.519Z,2.80
2023-04-12T22:50:21.897Z,3.20
2023-04-12T22:55:29.949Z,3.50
2023-04-12T23:00:35.182Z,4.20
2023-04-12T23:05:38.584Z,3.80
2023-04-12T23:10:42.068Z,4.22
2023-04-12T23:15:47.312Z,3.63
2023-04-12T23:21:05.665Z,3.53
2023-04-12T23:26:09.960Z,3.15
2023-04-12T23:31:15.172Z,0.85
2023-04-12T23:36:21.854Z,0.60
2023-04-12T23:41:24.698Z,0.70
2023-04-12T23:46:43.040Z,0.40
2023-04-12T23:51:45.973Z,0.40
2023-04-12T23:56:48.825Z,0.40
